sensor_id;sensor_type;location;lat;lon;timestamp;pressure;altitude;pressure_sealevel;temperature;humidity
29315;BME280;16320;53.954;9.506;2023-05-11T00:00:08;101329.97;;;11.25;100.00
29315;BME280;16320;53.954;9.506;2023-05-11T00:03:16;101332.63;;;11.25;100.00
29315;BME280;16320;53.954;9.506;2023-05-11T00:06:23;101335.25;;;11.25;100.00
29315;BME280;16320;53.954;9.506;2023-05-11T00:09:31;101335.25;;;11.25;100.00
29315;BME280;16320;53.954;9.506;2023-05-11T00:12:38;101343.19;;;11.23;100.00
29315;BME280;16320;53.954;9.506;2023-05-11T00:15:45;101345.97;;;11.20;100.00
29315;BME280;16320;53.954;9.506;2023-05-11T00:18:51;101338.22;;;11.17;100.00
29315;BME280;16320;53.954;9.506;2023-05-11T00:22:00;101346.94;;;11.17;100.00
29315;BME280;16320;53.954;9.506;2023-05-11T00:25:07;101346.28;;;11.12;100.00
29315;BME280;16320;53.954;9.506;2023-05-11T00:28:12;101341.16;;;11.09;100.00
29315;BME280;16320;53.954;9.506;2023-05-11T00:31:17;101345.44;;;11.12;100.00
29315;BME280;16320;53.954;9.506;2023-05-11T00:34:21;101350.78;;;11.10;100.00
29315;BME280;16320;53.954;9.506;2023-05-11T00:37:27;101351.56;;;11.12;100.00
29315;BME280;16320;53.954;9.506;2023-05-11T00:40:32;101351.81;;;11.06;100.00
29315;BME280;16320;53.954;9.506;2023-05-11T00:43:39;101351.88;;;11.05;100.00
29315;BME280;16320;53.954;9.506;2023-05-11T00:46:47;101355.19;;;11.10;100.00
29315;BME280;16320;53.954;9.506;2023-05-11T00:49:55;101351.81;;;11.06;100.00
29315;BME280;16320;53.954;9.506;2023-05-11T00:53:06;101354.31;;;11.09;100.00
29315;BME280;16320;53.954;9.506;2023-05-11T00:56:17;101350.13;;;11.05;100.00
29315;BME280;16320;53.954;9.506;2023-05-11T00:59:26;101346.97;;;10.97;100.00
29315;BME280;16320;53.954;9.506;2023-05-11T01:02:34;101346.97;;;10.97;100.00
29315;BME280;16320;53.954;9.506;2023-05-11T01:05:59;101352.38;;;10.94;100.00
29315;BME280;16320;53.954;9.506;2023-05-11T01:09:12;101344.41;;;10.95;100.00
29315;BME280;16320;53.954;9.506;2023-05-11T01:13:25;101350.53;;;10.96;100.00
29315;BME280;16320;53.954;9.506;2023-05-11T01:16:12;101354.81;;;10.98;100.00
29315;BME280;16320;53.954;9.506;2023-05-11T01:33:08;101354.81;;;10.98;100.00
29315;BME280;16320;53.954;9.506;2023-05-11T01:36:16;101350.38;;;10.99;100.00
29315;BME280;16320;53.954;9.506;2023-05-11T01:39:39;101360.78;;;11.02;100.00
29315;BME280;16320;53.954;9.506;2023-05-11T01:43:03;101358.91;;;11.04;100.00
29315;BME280;16320;53.954;9.506;2023-05-11T01:46:09;101357.22;;;11.03;100.00
29315;BME280;16320;53.954;9.506;2023-05-11T01:49:17;101364.44;;;10.98;100.00
29315;BME280;16320;53.954;9.506;2023-05-11T01:52:26;101365.38;;;10.97;100.00
29315;BME280;16320;53.954;9.506;2023-05-11T01:55:33;101376.81;;;10.96;100.00
29315;BME280;16320;53.954;9.506;2023-05-11T01:58:40;101374.09;;;10.97;100.00
29315;BME280;16320;53.954;9.506;2023-05-11T02:01:52;101377.59;;;10.98;100.00
29315;BME280;16320;53.954;9.506;2023-05-11T02:05:22;101385.59;;;10.95;100.00
29315;BME280;16320;53.954;9.506;2023-05-11T02:08:32;101378.53;;;10.97;100.00
29315;BME280;16320;53.954;9.506;2023-05-11T02:11:31;101393.34;;;10.98;100.00
29315;BME280;16320;53.954;9.506;2023-05-11T02:14:37;101391.53;;;11.00;100.00
29315;BME280;16320;53.954;9.506;2023-05-11T02:17:42;101393.09;;;11.04;100.00
29315;BME280;16320;53.954;9.506;2023-05-11T02:20:47;101389.81;;;10.99;100.00
29315;BME280;16320;53.954;9.506;2023-05-11T02:23:53;101399.13;;;11.06;100.00
29315;BME280;16320;53.954;9.506;2023-05-11T02:26:57;101399.19;;;11.05;100.00
29315;BME280;16320;53.954;9.506;2023-05-11T02:30:04;101394.03;;;11.03;100.00
29315;BME280;16320;53.954;9.506;2023-05-11T02:33:11;101398.28;;;11.06;100.00
29315;BME280;16320;53.954;9.506;2023-05-11T02:36:21;101399.13;;;11.06;100.00
29315;BME280;16320;53.954;9.506;2023-05-11T02:39:34;101397.56;;;11.02;100.00
29315;BME280;16320;53.954;9.506;2023-05-11T02:42:39;101397.84;;;10.96;100.00
29315;BME280;16320;53.954;9.506;2023-05-11T02:45:46;101405.72;;;10.96;100.00
29315;BME280;16320;53.954;9.506;2023-05-11T02:48:56;101403.16;;;10.94;100.00
29315;BME280;16320;53.954;9.506;2023-05-11T02:52:05;101409.25;;;10.95;100.00
29315;BME280;16320;53.954;9.506;2023-05-11T02:55:12;101410.06;;;10.97;100.00
29315;BME280;16320;53.954;9.506;2023-05-11T02:58:18;101413.59;;;10.96;100.00
29315;BME280;16320;53.954;9.506;2023-05-11T03:01:23;101416.03;;;11.01;100.00
29315;BME280;16320;53.954;9.506;2023-05-11T03:04:29;101412.63;;;10.98;100.00
29315;BME280;16320;53.954;9.506;2023-05-11T03:07:45;101417.06;;;10.96;100.00
29315;BME280;16320;53.954;9.506;2023-05-11T03:11:30;101412.81;;;10.94;100.00
29315;BME280;16320;53.954;9.506;2023-05-11T03:14:34;101412.69;;;10.97;100.00
29315;BME280;16320;53.954;9.506;2023-05-11T03:17:40;101418.72;;;10.99;100.00
29315;BME280;16320;53.954;9.506;2023-05-11T03:20:46;101424.84;;;10.99;100.00
29315;BME280;16320;53.954;9.506;2023-05-11T03:23:52;101427.34;;;11.03;100.00
29315;BME280;16320;53.954;9.506;2023-05-11T03:26:57;101427.16;;;11.07;100.00
29315;BME280;16320;53.954;9.506;2023-05-11T03:30:05;101427.94;;;11.09;100.00
29315;BME280;16320;53.954;9.506;2023-05-11T03:33:12;101429.00;;;11.05;100.00
29315;BME280;16320;53.954;9.506;2023-05-11T03:36:25;101422.94;;;11.03;100.00
29315;BME280;16320;53.954;9.506;2023-05-11T03:40:04;101426.22;;;11.08;100.00
29315;BME280;16320;53.954;9.506;2023-05-11T03:43:44;101429.00;;;11.05;100.00
29315;BME280;16320;53.954;9.506;2023-05-11T03:47:04;101426.31;;;11.07;100.00
29315;BME280;16320;53.954;9.506;2023-05-11T03:50:10;101434.25;;;11.05;100.00
29315;BME280;16320;53.954;9.506;2023-05-11T03:53:15;101428.22;;;11.03;100.00
29315;BME280;16320;53.954;9.506;2023-05-11T03:56:19;101422.28;;;10.98;100.00
29315;BME280;16320;53.954;9.506;2023-05-11T03:59:27;101425.97;;;10.94;100.00
29315;BME280;16320;53.954;9.506;2023-05-11T04:02:33;101416.88;;;11.01;100.00
29315;BME280;16320;53.954;9.506;2023-05-11T04:05:39;101417.00;;;10.98;100.00
29315;BME280;16320;53.954;9.506;2023-05-11T04:08:43;101417.88;;;10.98;100.00
29315;BME280;16320;53.954;9.506;2023-05-11T04:11:49;101424.91;;;10.98;100.00
29315;BME280;16320;53.954;9.506;2023-05-11T04:14:53;101424.84;;;10.99;100.00
29315;BME280;16320;53.954;9.506;2023-05-11T04:17:58;101419.31;;;11.06;100.00
29315;BME280;16320;53.954;9.506;2023-05-11T04:21:02;101421.09;;;11.05;100.00
29315;BME280;16320;53.954;9.506;2023-05-11T04:24:07;101411.63;;;11.01;100.00
29315;BME280;16320;53.954;9.506;2023-05-11T04:27:11;101414.91;;;11.06;100.00
29315;BME280;16320;53.954;9.506;2023-05-11T04:30:16;101411.44;;;11.06;100.00
29315;BME280;16320;53.954;9.506;2023-05-11T04:33:22;101413.03;;;11.10;100.00
29315;BME280;16320;53.954;9.506;2023-05-11T04:36:26;101409.25;;;11.15;100.00
29315;BME280;16320;53.954;9.506;2023-05-11T04:39:37;101406.63;;;11.15;100.00
29315;BME280;16320;53.954;9.506;2023-05-11T04:42:42;101416.38;;;11.13;100.00
29315;BME280;16320;53.954;9.506;2023-05-11T04:45:47;101419.78;;;11.15;100.00
29315;BME280;16320;53.954;9.506;2023-05-11T04:48:52;101426.63;;;11.20;100.00
29315;BME280;16320;53.954;9.506;2023-05-11T04:51:56;101429.19;;;11.21;100.00
29315;BME280;16320;53.954;9.506;2023-05-11T04:55:01;101433.31;;;11.27;100.00
29315;BME280;16320;53.954;9.506;2023-05-11T04:58:05;101430.63;;;11.28;100.00
29315;BME280;16320;53.954;9.506;2023-05-11T05:01:09;101434.28;;;11.24;100.00
29315;BME280;16320;53.954;9.506;2023-05-11T05:04:14;101432.66;;;11.22;100.00
29315;BME280;16320;53.954;9.506;2023-05-11T05:07:20;101442.41;;;11.20;100.00
29315;BME280;16320;53.954;9.506;2023-05-11T05:10:24;101443.44;;;11.15;100.00
29315;BME280;16320;53.954;9.506;2023-05-11T05:13:29;101446.06;;;11.15;100.00
29315;BME280;16320;53.954;9.506;2023-05-11T05:16:34;101445.28;;;11.13;100.00
29315;BME280;16320;53.954;9.506;2023-05-11T05:19:38;101440.16;;;11.10;100.00
29315;BME280;16320;53.954;9.506;2023-05-11T05:22:42;101445.94;;;11.18;100.00
29315;BME280;16320;53.954;9.506;2023-05-11T05:25:47;101453.19;;;11.13;100.00
29315;BME280;16320;53.954;9.506;2023-05-11T05:28:51;101453.06;;;11.16;100.00
29315;BME280;16320;53.954;9.506;2023-05-11T05:31:55;101454.38;;;11.27;100.00
29315;BME280;16320;53.954;9.506;2023-05-11T05:35:02;101453.66;;;11.23;100.00
29315;BME280;16320;53.954;9.506;2023-05-11T05:38:06;101458.91;;;11.23;100.00
29315;BME280;16320;53.954;9.506;2023-05-11T05:41:10;101456.09;;;11.28;100.00
29315;BME280;16320;53.954;9.506;2023-05-11T05:44:16;101454.50;;;11.24;100.00
29315;BME280;16320;53.954;9.506;2023-05-11T05:47:20;101461.28;;;11.29;100.00
29315;BME280;16320;53.954;9.506;2023-05-11T05:50:25;101456.72;;;11.33;100.00
29315;BME280;16320;53.954;9.506;2023-05-11T05:53:30;101460.53;;;11.26;100.00
29315;BME280;16320;53.954;9.506;2023-05-11T05:56:34;101467.50;;;11.27;100.00
29315;BME280;16320;53.954;9.506;2023-05-11T05:59:38;101466.31;;;11.34;100.00
29315;BME280;16320;53.954;9.506;2023-05-11T06:02:43;101468.16;;;11.32;100.00
29315;BME280;16320;53.954;9.506;2023-05-11T06:05:47;101470.06;;;11.28;100.00
29315;BME280;16320;53.954;9.506;2023-05-11T06:08:52;101470.00;;;11.30;100.00
29315;BME280;16320;53.954;9.506;2023-05-11T06:11:56;101478.56;;;11.35;100.00
29315;BME280;16320;53.954;9.506;2023-05-11T06:15:01;101476.84;;;11.34;100.00
29315;BME280;16320;53.954;9.506;2023-05-11T06:18:05;101469.63;;;11.39;100.00
29315;BME280;16320;53.954;9.506;2023-05-11T06:21:10;101472.06;;;11.44;100.00
29315;BME280;16320;53.954;9.506;2023-05-11T06:24:14;101471.31;;;11.40;100.00
29315;BME280;16320;53.954;9.506;2023-05-11T06:27:19;101476.69;;;11.37;100.00
29315;BME280;16320;53.954;9.506;2023-05-11T06:30:23;101471.19;;;11.43;100.00
29315;BME280;16320;53.954;9.506;2023-05-11T06:33:28;101471.31;;;11.40;100.00
29315;BME280;16320;53.954;9.506;2023-05-11T06:36:33;101471.97;;;11.45;100.00
29315;BME280;16320;53.954;9.506;2023-05-11T06:39:37;101473.81;;;11.43;100.00
29315;BME280;16320;53.954;9.506;2023-05-11T06:42:41;101476.13;;;11.30;100.00
29315;BME280;16320;53.954;9.506;2023-05-11T06:45:46;101466.19;;;11.37;100.00
29315;BME280;16320;53.954;9.506;2023-05-11T06:48:51;101475.59;;;11.43;100.00
29315;BME280;16320;53.954;9.506;2023-05-11T06:51:55;101481.72;;;11.43;100.00
29315;BME280;16320;53.954;9.506;2023-05-11T06:54:59;101481.72;;;11.43;100.00
29315;BME280;16320;53.954;9.506;2023-05-11T06:58:04;101478.03;;;11.47;100.00
29315;BME280;16320;53.954;9.506;2023-05-11T07:01:10;101477.22;;;11.45;100.00
29315;BME280;16320;53.954;9.506;2023-05-11T07:04:15;101474.59;;;11.45;100.00
29315;BME280;16320;53.954;9.506;2023-05-11T07:07:19;101480.09;;;11.41;100.00
29315;BME280;16320;53.954;9.506;2023-05-11T07:10:24;101480.16;;;11.39;100.00
29315;BME280;16320;53.954;9.506;2023-05-11T07:13:29;101479.06;;;11.43;100.00
29315;BME280;16320;53.954;9.506;2023-05-11T07:16:34;101485.94;;;11.47;100.00
29315;BME280;16320;53.954;9.506;2023-05-11T07:19:41;101483.94;;;11.52;100.00
29315;BME280;16320;53.954;9.506;2023-05-11T07:22:45;101492.63;;;11.54;100.00
29315;BME280;16320;53.954;9.506;2023-05-11T07:25:50;101495.13;;;11.58;100.00
29315;BME280;16320;53.954;9.506;2023-05-11T07:28:56;101484.28;;;11.65;100.00
29315;BME280;16320;53.954;9.506;2023-05-11T07:32:01;101487.75;;;11.66;100.00
29315;BME280;16320;53.954;9.506;2023-05-11T07:35:05;101490.50;;;11.63;100.00
29315;BME280;16320;53.954;9.506;2023-05-11T07:38:10;101492.63;;;11.75;100.00
29315;BME280;16320;53.954;9.506;2023-05-11T07:41:16;101492.03;;;11.87;100.00
29315;BME280;16320;53.954;9.506;2023-05-11T07:44:22;101500.88;;;11.86;100.00
29315;BME280;16320;53.954;9.506;2023-05-11T07:47:26;101501.59;;;11.90;100.00
29315;BME280;16320;53.954;9.506;2023-05-11T07:50:31;101495.38;;;11.93;100.00
29315;BME280;16320;53.954;9.506;2023-05-11T07:53:35;101500.66;;;11.93;100.00
29315;BME280;16320;53.954;9.506;2023-05-11T07:56:39;101509.31;;;11.95;100.00
29315;BME280;16320;53.954;9.506;2023-05-11T07:59:43;101513.56;;;11.97;100.00
29315;BME280;16320;53.954;9.506;2023-05-11T08:02:48;101513.09;;;11.87;100.00
29315;BME280;16320;53.954;9.506;2023-05-11T08:05:52;101515.50;;;11.94;100.00
29315;BME280;16320;53.954;9.506;2023-05-11T08:08:57;101513.56;;;11.97;100.00
29315;BME280;16320;53.954;9.506;2023-05-11T08:12:00;101525.75;;;12.00;100.00
29315;BME280;16320;53.954;9.506;2023-05-11T08:15:05;101523.25;;;11.97;100.00
29315;BME280;16320;53.954;9.506;2023-05-11T08:18:10;101521.41;;;11.99;100.00
29315;BME280;16320;53.954;9.506;2023-05-11T08:21:14;101514.97;;;12.06;100.00
29315;BME280;16320;53.954;9.506;2023-05-11T08:24:19;101517.31;;;12.12;100.00
29315;BME280;16320;53.954;9.506;2023-05-11T08:27:23;101523.16;;;12.19;100.00
29315;BME280;16320;53.954;9.506;2023-05-11T08:30:28;101516.31;;;12.15;100.00
29315;BME280;16320;53.954;9.506;2023-05-11T08:33:33;101511.88;;;12.15;100.00
29315;BME280;16320;53.954;9.506;2023-05-11T08:36:41;101516.88;;;12.21;100.00
29315;BME280;16320;53.954;9.506;2023-05-11T08:39:46;101520.16;;;12.26;100.00
29315;BME280;16320;53.954;9.506;2023-05-11T08:42:54;101516.75;;;12.24;100.00
29315;BME280;16320;53.954;9.506;2023-05-11T08:46:03;101522.50;;;12.33;100.00
29315;BME280;16320;53.954;9.506;2023-05-11T08:49:10;101517.88;;;12.38;100.00
29315;BME280;16320;53.954;9.506;2023-05-11T08:52:15;101524.44;;;12.48;100.00
29315;BME280;16320;53.954;9.506;2023-05-11T08:55:23;101526.28;;;12.46;100.00
29315;BME280;16320;53.954;9.506;2023-05-11T08:58:30;101522.31;;;12.56;100.00
29315;BME280;16320;53.954;9.506;2023-05-11T09:01:35;101524.31;;;12.51;100.00
29315;BME280;16320;53.954;9.506;2023-05-11T09:04:41;101525.94;;;12.54;100.00
29315;BME280;16320;53.954;9.506;2023-05-11T09:07:46;101525.16;;;12.52;100.00
29315;BME280;16320;53.954;9.506;2023-05-11T09:10:53;101519.53;;;12.59;100.00
29315;BME280;16320;53.954;9.506;2023-05-11T09:13:58;101521.53;;;12.54;100.00
29315;BME280;16320;53.954;9.506;2023-05-11T09:17:02;101523.28;;;12.54;100.00
29315;BME280;16320;53.954;9.506;2023-05-11T09:20:08;101523.34;;;12.52;100.00
29315;BME280;16320;53.954;9.506;2023-05-11T09:23:17;101516.41;;;12.51;100.00
29315;BME280;16320;53.954;9.506;2023-05-11T09:26:22;101517.72;;;12.60;100.00
29315;BME280;16320;53.954;9.506;2023-05-11T09:29:33;101515.66;;;12.67;100.00
29315;BME280;16320;53.954;9.506;2023-05-11T09:32:53;101524.69;;;12.80;100.00
29315;BME280;16320;53.954;9.506;2023-05-11T09:35:58;101514.69;;;12.87;100.00
29315;BME280;16320;53.954;9.506;2023-05-11T09:39:03;101521.94;;;13.00;100.00
29315;BME280;16320;53.954;9.506;2023-05-11T09:42:20;101520.63;;;13.09;100.00
29315;BME280;16320;53.954;9.506;2023-05-11T09:45:46;101522.47;;;13.07;100.00
29315;BME280;16320;53.954;9.506;2023-05-11T09:48:58;101514.34;;;13.12;100.00
29315;BME280;16320;53.954;9.506;2023-05-11T09:52:05;101522.09;;;13.15;100.00
29315;BME280;16320;53.954;9.506;2023-05-11T09:55:11;101518.56;;;13.16;100.00
29315;BME280;16320;53.954;9.506;2023-05-11T09:58:15;101521.97;;;13.18;100.00
29315;BME280;16320;53.954;9.506;2023-05-11T10:01:33;101520.00;;;13.22;100.00
29315;BME280;16320;53.954;9.506;2023-05-11T10:04:38;101522.66;;;13.22;100.00
29315;BME280;16320;53.954;9.506;2023-05-11T10:07:42;101516.69;;;13.18;100.00
29315;BME280;16320;53.954;9.506;2023-05-11T10:10:48;101519.03;;;13.24;100.00
29315;BME280;16320;53.954;9.506;2023-05-11T10:13:52;101525.13;;;13.25;100.00
29315;BME280;16320;53.954;9.506;2023-05-11T10:16:57;101518.22;;;13.22;100.00
29315;BME280;16320;53.954;9.506;2023-05-11T10:20:05;101506.59;;;13.26;100.00
29315;BME280;16320;53.954;9.506;2023-05-11T10:23:10;101509.09;;;13.29;100.00
29315;BME280;16320;53.954;9.506;2023-05-11T10:26:16;101513.00;;;13.40;100.00
29315;BME280;16320;53.954;9.506;2023-05-11T10:29:20;101512.38;;;13.52;100.00
29315;BME280;16320;53.954;9.506;2023-05-11T10:32:25;101511.56;;;13.50;100.00
29315;BME280;16320;53.954;9.506;2023-05-11T10:35:30;101517.38;;;13.57;100.00
29315;BME280;16320;53.954;9.506;2023-05-11T10:38:35;101519.66;;;13.47;100.00
29315;BME280;16320;53.954;9.506;2023-05-11T10:53:45;101518.78;;;13.64;100.00
29315;BME280;16320;53.954;9.506;2023-05-11T11:00:35;101519.34;;;13.53;100.00
29315;BME280;16320;53.954;9.506;2023-05-11T11:04:02;101507.25;;;13.49;100.00
29315;BME280;16320;53.954;9.506;2023-05-11T11:07:08;101517.66;;;13.52;100.00
29315;BME280;16320;53.954;9.506;2023-05-11T11:10:33;101512.38;;;13.52;100.00
29315;BME280;16320;53.954;9.506;2023-05-11T11:13:58;101520.75;;;13.60;100.00
29315;BME280;16320;53.954;9.506;2023-05-11T11:20:45;101521.50;;;13.62;100.00
29315;BME280;16320;53.954;9.506;2023-05-11T11:23:50;101520.59;;;13.63;100.00
29315;BME280;16320;53.954;9.506;2023-05-11T11:26:55;101522.44;;;13.61;100.00
29315;BME280;16320;53.954;9.506;2023-05-11T11:30:20;101522.28;;;13.64;100.00
29315;BME280;16320;53.954;9.506;2023-05-11T11:40:36;101527.56;;;13.64;100.00
29315;BME280;16320;53.954;9.506;2023-05-11T11:44:03;101528.63;;;13.78;100.00
29315;BME280;16320;53.954;9.506;2023-05-11T11:47:22;101530.50;;;13.76;100.00
29315;BME280;16320;53.954;9.506;2023-05-11T11:50:34;101527.69;;;13.79;100.00
29315;BME280;16320;53.954;9.506;2023-05-11T11:54:00;101519.78;;;13.79;100.00
29315;BME280;16320;53.954;9.506;2023-05-11T12:00:51;101529.19;;;14.00;100.00
29315;BME280;16320;53.954;9.506;2023-05-11T12:07:50;101532.13;;;14.12;100.00
29315;BME280;16320;53.954;9.506;2023-05-11T12:10:57;101549.47;;;14.33;100.00
29315;BME280;16320;53.954;9.506;2023-05-11T12:14:02;101542.47;;;14.32;100.00
29315;BME280;16320;53.954;9.506;2023-05-11T12:17:07;101547.41;;;14.38;100.00
29315;BME280;16320;53.954;9.506;2023-05-11T12:20:18;101538.28;;;14.44;100.00
29315;BME280;16320;53.954;9.506;2023-05-11T12:23:23;101534.72;;;14.45;100.00
29315;BME280;16320;53.954;9.506;2023-05-11T12:26:29;101527.22;;;14.53;100.00
29315;BME280;16320;53.954;9.506;2023-05-11T12:29:33;101522.31;;;14.63;100.00
29315;BME280;16320;53.954;9.506;2023-05-11T12:32:41;101524.88;;;14.64;100.00
29315;BME280;16320;53.954;9.506;2023-05-11T12:35:52;101514.97;;;14.68;100.00
29315;BME280;16320;53.954;9.506;2023-05-11T12:39:40;101511.72;;;14.79;100.00
29315;BME280;16320;53.954;9.506;2023-05-11T12:43:19;101521.66;;;14.90;100.00
29315;BME280;16320;53.954;9.506;2023-05-11T12:46:36;101514.34;;;14.95;100.00
29315;BME280;16320;53.954;9.506;2023-05-11T12:50:20;101510.38;;;15.02;100.00
29315;BME280;16320;53.954;9.506;2023-05-11T12:53:37;101509.63;;;15.00;100.00
29315;BME280;16320;53.954;9.506;2023-05-11T12:56:48;101500.69;;;15.17;100.00
29315;BME280;16320;53.954;9.506;2023-05-11T13:00:13;101493.44;;;15.20;100.00
29315;BME280;16320;53.954;9.506;2023-05-11T13:03:28;101488.00;;;15.38;100.00
29315;BME280;16320;53.954;9.506;2023-05-11T13:06:33;101487.06;;;15.39;100.00
29315;BME280;16320;53.954;9.506;2023-05-11T13:09:40;101483.19;;;15.45;100.00
29315;BME280;16320;53.954;9.506;2023-05-11T13:12:50;101480.25;;;15.49;100.00
29315;BME280;16320;53.954;9.506;2023-05-11T13:15:56;101470.03;;;15.43;100.00
29315;BME280;16320;53.954;9.506;2023-05-11T13:19:07;101467.78;;;15.37;100.00
29315;BME280;16320;53.954;9.506;2023-05-11T13:22:12;101475.31;;;15.43;100.00
29315;BME280;16320;53.954;9.506;2023-05-11T13:25:19;101465.69;;;15.42;100.00
29315;BME280;16320;53.954;9.506;2023-05-11T13:28:28;101467.78;;;15.51;100.00
29315;BME280;16320;53.954;9.506;2023-05-11T13:31:51;101467.22;;;15.61;100.00
29315;BME280;16320;53.954;9.506;2023-05-11T13:34:56;101463.34;;;15.66;100.00
29315;BME280;16320;53.954;9.506;2023-05-11T13:38:04;101456.25;;;15.67;100.00
29315;BME280;16320;53.954;9.506;2023-05-11T13:41:09;101462.53;;;15.80;100.00
29315;BME280;16320;53.954;9.506;2023-05-11T13:44:17;101452.94;;;15.92;100.00
29315;BME280;16320;53.954;9.506;2023-05-11T13:47:23;101444.63;;;15.98;100.00
29315;BME280;16320;53.954;9.506;2023-05-11T13:50:29;101432.81;;;16.04;100.00
29315;BME280;16320;53.954;9.506;2023-05-11T13:53:35;101427.66;;;16.15;100.00
29315;BME280;16320;53.954;9.506;2023-05-11T13:56:40;101432.25;;;16.26;100.00
29315;BME280;16320;53.954;9.506;2023-05-11T13:59:44;101424.56;;;16.36;100.00
29315;BME280;16320;53.954;9.506;2023-05-11T14:02:48;101416.47;;;16.52;100.00
29315;BME280;16320;53.954;9.506;2023-05-11T14:05:53;101411.47;;;16.47;100.00
29315;BME280;16320;53.954;9.506;2023-05-11T14:08:57;101398.59;;;16.41;100.00
29315;BME280;16320;53.954;9.506;2023-05-11T14:12:02;101400.91;;;16.33;100.00
29315;BME280;16320;53.954;9.506;2023-05-11T14:15:08;101406.16;;;16.20;100.00
29315;BME280;16320;53.954;9.506;2023-05-11T14:18:13;101410.41;;;16.22;100.00
29315;BME280;16320;53.954;9.506;2023-05-11T14:21:18;101414.97;;;16.20;100.00
29315;BME280;16320;53.954;9.506;2023-05-11T14:24:22;101423.66;;;16.22;100.00
29315;BME280;16320;53.954;9.506;2023-05-11T14:27:27;101415.72;;;16.22;100.00
29315;BME280;16320;53.954;9.506;2023-05-11T14:30:32;101410.81;;;16.16;100.00
29315;BME280;16320;53.954;9.506;2023-05-11T14:33:38;101419.09;;;16.24;100.00
29315;BME280;16320;53.954;9.506;2023-05-11T14:36:42;101417.69;;;16.33;100.00
29315;BME280;16320;53.954;9.506;2023-05-11T14:39:46;101413.22;;;16.34;100.00
29315;BME280;16320;53.954;9.506;2023-05-11T14:42:50;101404.53;;;16.32;100.00
29315;BME280;16320;53.954;9.506;2023-05-11T14:45:54;101411.31;;;16.36;100.00
29315;BME280;16320;53.954;9.506;2023-05-11T14:48:58;101401.16;;;16.42;100.00
29315;BME280;16320;53.954;9.506;2023-05-11T14:52:04;101396.38;;;16.35;100.00
29315;BME280;16320;53.954;9.506;2023-05-11T14:55:08;101393.72;;;16.35;100.00
29315;BME280;16320;53.954;9.506;2023-05-11T14:58:12;101394.22;;;16.27;100.00
29315;BME280;16320;53.954;9.506;2023-05-11T15:01:16;101392.59;;;16.24;100.00
29315;BME280;16320;53.954;9.506;2023-05-11T15:04:21;101389.22;;;16.22;100.00
29315;BME280;16320;53.954;9.506;2023-05-11T15:07:26;101379.78;;;16.18;100.00
29315;BME280;16320;53.954;9.506;2023-05-11T15:10:31;101385.66;;;16.09;100.00
29315;BME280;16320;53.954;9.506;2023-05-11T15:13:36;101384.91;;;16.07;100.00
29315;BME280;16320;53.954;9.506;2023-05-11T15:16:40;101389.44;;;16.05;100.00
29315;BME280;16320;53.954;9.506;2023-05-11T15:19:45;101388.16;;;15.98;100.00
29315;BME280;16320;53.954;9.506;2023-05-11T15:22:50;101392.50;;;15.99;100.00
29315;BME280;16320;53.954;9.506;2023-05-11T15:25:57;101395.72;;;16.04;100.00
29315;BME280;16320;53.954;9.506;2023-05-11T15:29:04;101405.25;;;16.06;100.00
29315;BME280;16320;53.954;9.506;2023-05-11T15:32:12;101407.50;;;16.13;100.00
29315;BME280;16320;53.954;9.506;2023-05-11T15:36:05;101399.75;;;16.09;100.00
29315;BME280;16320;53.954;9.506;2023-05-11T15:39:41;101407.13;;;16.19;100.00
29315;BME280;16320;53.954;9.506;2023-05-11T15:42:46;101408.50;;;16.24;100.00
29315;BME280;16320;53.954;9.506;2023-05-11T15:45:56;101417.03;;;16.29;100.00
29315;BME280;16320;53.954;9.506;2023-05-11T15:49:03;101413.03;;;16.37;100.00
29315;BME280;16320;53.954;9.506;2023-05-11T15:52:13;101409.88;;;16.44;100.00
29315;BME280;16320;53.954;9.506;2023-05-11T15:55:28;101409.69;;;16.47;100.00
29315;BME280;16320;53.954;9.506;2023-05-11T15:58:42;101417.72;;;16.46;100.00
29315;BME280;16320;53.954;9.506;2023-05-11T16:01:47;101416.25;;;16.55;100.00
29315;BME280;16320;53.954;9.506;2023-05-11T16:04:52;101409.81;;;16.59;100.00
29315;BME280;16320;53.954;9.506;2023-05-11T16:07:56;101406.72;;;16.65;100.00
29315;BME280;16320;53.954;9.506;2023-05-11T16:11:01;101405.91;;;16.64;100.00
29315;BME280;16320;53.954;9.506;2023-05-11T16:14:05;101408.56;;;16.64;100.00
29315;BME280;16320;53.954;9.506;2023-05-11T16:17:10;101395.50;;;16.61;100.00
29315;BME280;16320;53.954;9.506;2023-05-11T16:20:14;101402.69;;;16.59;100.00
29315;BME280;16320;53.954;9.506;2023-05-11T16:23:20;101396.09;;;16.52;100.00
29315;BME280;16320;53.954;9.506;2023-05-11T16:26:25;101398.97;;;16.49;100.00
29315;BME280;16320;53.954;9.506;2023-05-11T16:29:30;101417.31;;;16.52;100.00
29315;BME280;16320;53.954;9.506;2023-05-11T16:32:35;101401.63;;;16.49;100.00
29315;BME280;16320;53.954;9.506;2023-05-11T16:35:39;101409.88;;;16.44;100.00
29315;BME280;16320;53.954;9.506;2023-05-11T16:38:44;101413.13;;;16.35;100.00
29315;BME280;16320;53.954;9.506;2023-05-11T16:41:48;101404.53;;;16.32;100.00
29315;BME280;16320;53.954;9.506;2023-05-11T16:44:53;101401.78;;;16.33;100.00
29315;BME280;16320;53.954;9.506;2023-05-11T16:47:58;101411.25;;;16.23;100.00
29315;BME280;16320;53.954;9.506;2023-05-11T16:51:02;101413.06;;;16.22;100.00
29315;BME280;16320;53.954;9.506;2023-05-11T16:54:06;101413.06;;;16.22;100.00
29315;BME280;16320;53.954;9.506;2023-05-11T16:57:12;101414.97;;;16.20;100.00